createdAt,value
2023-05-11T00:01:40.873Z,14.34
2023-05-11T00:04:24.107Z,14.13
2023-05-11T00:07:01.545Z,14.22
2023-05-11T00:09:42.790Z,14.25
2023-05-11T00:12:15.705Z,14.25
2023-05-11T00:14:55.968Z,14.33
2023-05-11T00:17:47.906Z,14.35
2023-05-11T00:20:28.117Z,14.10
2023-05-11T00:23:04.387Z,14.04
2023-05-11T00:25:46.025Z,13.98
2023-05-11T00:28:38.515Z,14.00
2023-05-11T00:31:24.800Z,13.97
2023-05-11T00:34:08.171Z,13.87
2023-05-11T00:36:54.391Z,13.91
2023-05-11T00:39:40.422Z,13.88
2023-05-11T00:42:28.549Z,13.84
2023-05-11T00:45:12.387Z,13.81
2023-05-11T00:47:49.817Z,13.67
2023-05-11T00:50:28.834Z,13.80
2023-05-11T00:53:11.493Z,13.78
2023-05-11T00:55:56.567Z,13.97
2023-05-11T00:58:35.778Z,13.89
2023-05-11T01:01:22.065Z,13.83
2023-05-11T01:04:00.109Z,13.81
2023-05-11T01:06:53.164Z,13.82
2023-05-11T01:09:48.384Z,13.88
2023-05-11T01:12:49.148Z,13.92
2023-05-11T01:15:40.091Z,13.96
2023-05-11T01:18:35.691Z,13.95
2023-05-11T01:21:19.781Z,13.99
2023-05-11T01:24:10.379Z,14.13
2023-05-11T01:27:07.936Z,13.98
2023-05-11T01:30:14.641Z,13.96
2023-05-11T01:32:52.255Z,13.93
2023-05-11T01:35:37.490Z,13.96
2023-05-11T01:38:16.026Z,13.86
2023-05-11T01:41:00.257Z,14.01
2023-05-11T01:43:46.487Z,13.96
2023-05-11T01:46:27.527Z,14.06
2023-05-11T01:48:59.670Z,14.02
2023-05-11T01:51:40.823Z,13.79
2023-05-11T01:54:22.653Z,13.77
2023-05-11T01:56:57.496Z,13.68
2023-05-11T01:59:49.022Z,13.61
2023-05-11T02:02:25.937Z,13.60
2023-05-11T02:04:59.832Z,13.69
2023-05-11T02:07:36.554Z,13.55
2023-05-11T02:10:15.890Z,13.54
2023-05-11T02:12:55.793Z,13.59
2023-05-11T02:15:39.227Z,13.56
2023-05-11T02:18:18.114Z,13.55
2023-05-11T02:21:04.912Z,13.48
2023-05-11T02:23:46.949Z,13.41
2023-05-11T02:26:25.151Z,13.31
2023-05-11T02:29:04.781Z,13.28
2023-05-11T02:31:51.659Z,13.20
2023-05-11T02:34:41.260Z,13.19
2023-05-11T02:37:20.951Z,13.20
2023-05-11T02:40:03.818Z,13.17
2023-05-11T02:42:39.476Z,13.17
2023-05-11T02:45:22.597Z,13.10
2023-05-11T02:48:02.404Z,13.12
2023-05-11T02:50:39.948Z,13.02
2023-05-11T02:56:17.208Z,13.03
2023-05-11T02:59:07.878Z,13.06
2023-05-11T03:01:44.330Z,12.98
2023-05-11T03:04:22.789Z,12.84
2023-05-11T03:06:58.048Z,12.94
2023-05-11T03:09:49.400Z,13.01
2023-05-11T03:12:25.111Z,12.97
2023-05-11T03:15:05.914Z,12.89
2023-05-11T03:17:48.877Z,12.98
2023-05-11T03:20:29.322Z,13.08
2023-05-11T03:23:02.635Z,13.15
2023-05-11T03:25:47.441Z,13.15
2023-05-11T03:28:27.958Z,13.20
2023-05-11T03:31:12.783Z,13.31
2023-05-11T03:33:54.001Z,13.34
2023-05-11T03:36:30.824Z,13.27
2023-05-11T03:39:12.336Z,13.27
2023-05-11T03:41:56.725Z,13.31
2023-05-11T03:44:30.912Z,13.12
2023-05-11T03:47:18.722Z,13.36
2023-05-11T03:50:02.613Z,13.36
2023-05-11T03:52:40.836Z,13.44
2023-05-11T03:55:22.585Z,13.51
2023-05-11T03:57:58.332Z,13.34
2023-05-11T04:00:49.113Z,13.16
2023-05-11T04:03:31.512Z,13.31
2023-05-11T04:06:09.437Z,13.35
2023-05-11T04:08:50.474Z,13.22
2023-05-11T04:11:30.721Z,13.20
2023-05-11T04:14:23.959Z,13.29
2023-05-11T04:17:05.210Z,13.41
2023-05-11T04:19:43.971Z,13.35
2023-05-11T04:22:24.396Z,13.52
2023-05-11T04:25:07.091Z,13.52
2023-05-11T04:27:50.355Z,13.60
2023-05-11T04:30:31.412Z,13.70
2023-05-11T04:33:13.053Z,13.62
2023-05-11T04:35:59.027Z,13.86
2023-05-11T04:38:38.353Z,13.71
2023-05-11T04:41:24.054Z,13.70
2023-05-11T04:44:09.360Z,13.68
2023-05-11T04:46:51.421Z,13.71
2023-05-11T04:49:54.030Z,13.75
2023-05-11T04:52:34.680Z,13.94
2023-05-11T04:55:20.474Z,13.67
2023-05-11T04:58:01.359Z,13.81
2023-05-11T05:00:57.745Z,13.78
2023-05-11T05:03:36.452Z,13.81
2023-05-11T05:06:28.590Z,13.58
2023-05-11T05:09:22.898Z,13.54
2023-05-11T05:12:17.632Z,13.48
2023-05-11T05:15:07.177Z,13.52
2023-05-11T05:17:55.624Z,13.44
2023-05-11T05:20:42.753Z,13.31
2023-05-11T05:23:29.449Z,13.57
2023-05-11T05:26:12.796Z,13.61
2023-05-11T05:29:05.035Z,13.58
2023-05-11T05:31:51.425Z,13.84
2023-05-11T05:34:34.876Z,13.97
2023-05-11T05:37:24.371Z,14.20
2023-05-11T05:40:12.839Z,13.80
2023-05-11T05:43:06.333Z,13.83
2023-05-11T05:45:52.496Z,13.72
2023-05-11T05:48:29.369Z,14.08
2023-05-11T05:51:04.881Z,14.10
2023-05-11T05:53:45.337Z,14.25
2023-05-11T05:56:31.628Z,14.34
2023-05-11T05:59:20.044Z,14.25
2023-05-11T06:02:12.685Z,14.19
2023-05-11T06:04:58.652Z,13.95
2023-05-11T06:07:42.994Z,13.70
2023-05-11T06:10:23.920Z,13.75
2023-05-11T06:13:17.551Z,13.86
2023-05-11T06:16:04.317Z,13.78
2023-05-11T06:18:56.098Z,13.86
2023-05-11T06:21:41.833Z,13.71
2023-05-11T06:24:36.119Z,13.79
2023-05-11T06:27:21.356Z,13.93
2023-05-11T06:30:09.017Z,13.92
2023-05-11T06:33:00.389Z,13.79
2023-05-11T06:36:06.625Z,14.08
2023-05-11T06:38:49.368Z,13.88
2023-05-11T06:42:06.765Z,13.92
2023-05-11T06:45:01.354Z,13.72
2023-05-11T06:47:40.022Z,13.96
2023-05-11T06:50:20.922Z,14.09
2023-05-11T06:52:58.149Z,14.17
2023-05-11T06:55:43.576Z,14.01
2023-05-11T06:58:29.577Z,13.86
2023-05-11T07:01:15.979Z,14.06
2023-05-11T07:04:03.562Z,14.05
2023-05-11T07:06:41.596Z,14.18
2023-05-11T07:09:29.610Z,14.01
2023-05-11T07:12:18.771Z,14.26
2023-05-11T07:14:59.088Z,14.19
2023-05-11T07:17:57.903Z,14.27
2023-05-11T07:20:44.839Z,14.21
2023-05-11T07:23:29.940Z,14.27
2023-05-11T07:26:11.168Z,14.13
2023-05-11T07:28:49.913Z,14.37
2023-05-11T07:31:36.554Z,14.22
2023-05-11T07:34:25.298Z,14.33
2023-05-11T07:37:17.113Z,14.25
2023-05-11T07:42:55.255Z,15.00
2023-05-11T07:45:28.059Z,15.49
2023-05-11T07:48:14.529Z,15.68
2023-05-11T07:50:55.825Z,15.80
2023-05-11T07:53:36.741Z,15.95
2023-05-11T07:56:23.278Z,16.51
2023-05-11T07:59:08.631Z,16.91
2023-05-11T08:01:53.244Z,17.30
2023-05-11T08:04:39.104Z,17.81
2023-05-11T08:07:26.000Z,18.19
2023-05-11T08:10:10.035Z,17.79
2023-05-11T08:13:01.780Z,18.02
2023-05-11T08:15:45.251Z,18.05
2023-05-11T08:18:24.205Z,18.38
2023-05-11T08:21:10.872Z,18.60
2023-05-11T08:24:00.624Z,19.01
2023-05-11T08:26:46.881Z,19.53
2023-05-11T08:29:40.088Z,19.45
2023-05-11T08:32:18.414Z,19.82
2023-05-11T08:35:07.396Z,19.60
2023-05-11T08:37:55.012Z,19.88
2023-05-11T08:40:46.746Z,20.22
2023-05-11T08:43:31.270Z,20.28
2023-05-11T08:46:08.059Z,20.55
2023-05-11T08:48:50.484Z,20.27
2023-05-11T08:51:34.018Z,20.70
2023-05-11T08:54:09.279Z,20.41
2023-05-11T08:57:09.035Z,20.14
2023-05-11T08:59:54.634Z,19.90
2023-05-11T09:02:36.493Z,19.77
2023-05-11T09:05:23.351Z,20.19
2023-05-11T09:08:08.994Z,20.06
2023-05-11T09:10:49.705Z,20.51
2023-05-11T09:13:35.981Z,20.67
2023-05-11T09:16:33.032Z,20.18
2023-05-11T09:19:22.450Z,20.22
2023-05-11T09:22:07.871Z,20.42
2023-05-11T09:24:48.353Z,20.25
2023-05-11T09:27:30.038Z,19.80
2023-05-11T09:30:22.080Z,20.44
2023-05-11T09:33:26.465Z,20.55
2023-05-11T09:36:06.135Z,20.49
2023-05-11T09:38:57.302Z,20.69
2023-05-11T09:41:54.907Z,20.83
2023-05-11T09:44:38.200Z,21.25
2023-05-11T09:47:27.953Z,21.60
2023-05-11T09:50:18.853Z,21.00
2023-05-11T09:53:07.217Z,20.65
2023-05-11T09:55:51.697Z,20.55
2023-05-11T09:58:48.858Z,20.34
2023-05-11T10:01:45.029Z,20.33
2023-05-11T10:04:40.784Z,20.50
2023-05-11T10:07:39.305Z,20.56
2023-05-11T10:10:22.872Z,20.39
2023-05-11T10:13:03.601Z,20.78
2023-05-11T10:15:41.011Z,21.12
2023-05-11T10:18:27.018Z,21.11
2023-05-11T10:21:18.277Z,21.69
2023-05-11T10:23:57.034Z,21.85
2023-05-11T10:26:36.393Z,21.25
2023-05-11T10:29:22.071Z,21.54
2023-05-11T10:32:02.124Z,21.87
2023-05-11T10:34:51.026Z,21.62
2023-05-11T10:37:24.516Z,21.43
2023-05-11T10:40:10.258Z,21.41
2023-05-11T10:43:13.471Z,21.62
2023-05-11T10:46:33.036Z,21.34
2023-05-11T10:49:42.863Z,21.53
2023-05-11T10:53:12.250Z,21.84
2023-05-11T10:56:24.178Z,22.10
2023-05-11T10:59:14.336Z,21.99
2023-05-11T11:02:00.556Z,21.90
2023-05-11T11:04:55.002Z,21.95
2023-05-11T11:07:35.738Z,21.80
2023-05-11T11:10:09.175Z,21.33
2023-05-11T11:13:07.126Z,21.85
2023-05-11T11:16:00.832Z,22.19
2023-05-11T11:18:38.881Z,21.52
2023-05-11T11:21:42.793Z,22.07
2023-05-11T11:24:44.891Z,21.95
2023-05-11T11:27:43.326Z,22.26
2023-05-11T11:30:34.814Z,22.46
2023-05-11T11:33:48.157Z,22.81
2023-05-11T11:36:56.377Z,22.82
2023-05-11T11:39:25.567Z,22.70
2023-05-11T11:42:14.028Z,23.09
2023-05-11T11:45:17.897Z,23.75
2023-05-11T11:48:20.860Z,23.78
2023-05-11T11:51:13.462Z,23.76
2023-05-11T11:54:09.066Z,22.93
2023-05-11T11:56:52.982Z,22.75
2023-05-11T11:59:31.165Z,22.79
2023-05-11T12:02:10.755Z,22.52
2023-05-11T12:05:14.315Z,22.59
2023-05-11T12:07:59.259Z,22.24
2023-05-11T12:10:36.397Z,21.90
2023-05-11T12:13:26.377Z,21.38
2023-05-11T12:16:22.950Z,21.53
2023-05-11T12:19:04.507Z,21.80
2023-05-11T12:21:47.804Z,21.71
2023-05-11T12:24:29.509Z,21.40
2023-05-11T12:27:12.134Z,21.70
2023-05-11T12:30:23.348Z,22.51
2023-05-11T12:33:13.550Z,23.44
2023-05-11T12:36:04.444Z,24.06
2023-05-11T12:38:48.642Z,23.30
2023-05-11T12:41:39.239Z,22.14
2023-05-11T12:44:34.993Z,22.92
2023-05-11T12:47:30.382Z,23.03
2023-05-11T12:50:12.068Z,23.71
2023-05-11T12:52:56.807Z,23.27
2023-05-11T12:55:43.232Z,22.54
2023-05-11T12:58:26.634Z,22.36
2023-05-11T13:01:02.024Z,22.19
2023-05-11T13:03:54.645Z,22.40
2023-05-11T13:06:29.279Z,22.65
2023-05-11T13:09:28.077Z,22.78
2023-05-11T13:12:41.596Z,22.24
2023-05-11T13:15:29.038Z,22.41
2023-05-11T13:18:16.535Z,21.83
2023-05-11T13:21:13.913Z,21.39
2023-05-11T13:23:57.672Z,21.10
2023-05-11T13:26:54.999Z,21.80
2023-05-11T13:29:39.330Z,22.35
2023-05-11T13:32:15.228Z,23.01
2023-05-11T13:34:59.110Z,23.13
2023-05-11T13:37:41.463Z,22.92
2023-05-11T13:40:25.047Z,23.08
2023-05-11T13:43:04.173Z,22.96
2023-05-11T13:46:00.376Z,23.55
2023-05-11T13:48:43.943Z,23.51
2023-05-11T13:51:23.021Z,22.82
2023-05-11T13:54:13.276Z,23.00
2023-05-11T13:56:54.389Z,22.80
2023-05-11T13:59:40.636Z,22.98
2023-05-11T14:02:25.401Z,22.69
2023-05-11T14:05:07.233Z,22.41
2023-05-11T14:07:59.302Z,22.44
2023-05-11T14:10:48.830Z,22.27
2023-05-11T14:13:40.952Z,22.62
2023-05-11T14:16:37.967Z,23.44
2023-05-11T14:19:15.372Z,23.04
2023-05-11T14:22:02.042Z,22.76
2023-05-11T14:24:42.454Z,22.23
2023-05-11T14:27:27.319Z,21.48
2023-05-11T14:30:09.301Z,22.10
2023-05-11T14:33:08.055Z,22.39
2023-05-11T14:35:55.895Z,22.78
2023-05-11T14:38:38.752Z,23.12
2023-05-11T14:41:25.766Z,23.11
2023-05-11T14:44:06.829Z,22.75
2023-05-11T14:46:54.015Z,23.09
2023-05-11T14:49:46.114Z,23.30
2023-05-11T14:52:27.057Z,23.00
2023-05-11T14:55:25.720Z,23.23
2023-05-11T14:58:14.772Z,23.35
2023-05-11T15:00:58.991Z,23.33
2023-05-11T15:03:41.293Z,22.79
2023-05-11T15:06:30.904Z,22.25
2023-05-11T15:12:28.087Z,22.35
2023-05-11T15:15:23.387Z,22.22
2023-05-11T15:17:59.019Z,22.25
2023-05-11T15:20:48.812Z,21.67
2023-05-11T15:23:30.740Z,21.58
2023-05-11T15:26:24.498Z,21.39
2023-05-11T15:29:00.980Z,21.44
2023-05-11T15:31:39.942Z,21.26
2023-05-11T15:34:20.754Z,21.07
2023-05-11T15:37:11.397Z,20.97
2023-05-11T15:39:47.198Z,20.80
2023-05-11T15:42:37.044Z,20.89
2023-05-11T15:45:20.781Z,20.67
2023-05-11T15:50:55.395Z,20.82
2023-05-11T15:53:40.028Z,20.67
2023-05-11T15:56:20.907Z,20.63
2023-05-11T15:59:05.377Z,20.58
2023-05-11T16:02:01.051Z,20.65
2023-05-11T16:04:47.930Z,20.29
2023-05-11T16:07:31.432Z,20.44
2023-05-11T16:10:20.471Z,20.59
2023-05-11T16:13:04.026Z,20.22
2023-05-11T16:15:51.245Z,20.36
2023-05-11T16:18:33.093Z,20.27
2023-05-11T16:21:34.885Z,20.31
2023-05-11T16:24:27.032Z,20.25
2023-05-11T16:27:11.383Z,19.93
2023-05-11T16:30:21.786Z,20.08
2023-05-11T16:33:14.860Z,20.15
2023-05-11T16:39:12.345Z,19.89
2023-05-11T16:42:05.953Z,19.83
2023-05-11T16:44:49.280Z,19.87
2023-05-11T16:47:33.044Z,19.76
2023-05-11T16:50:24.564Z,19.60
2023-05-11T16:53:16.298Z,19.66
2023-05-11T16:56:03.375Z,19.49
2023-05-11T16:58:50.360Z,19.58
2023-05-11T17:01:46.657Z,19.66
2023-05-11T17:04:32.899Z,19.70
2023-05-11T17:07:17.032Z,19.83
2023-05-11T17:09:59.659Z,19.68
2023-05-11T17:13:01.466Z,19.75
2023-05-11T17:15:36.843Z,19.49
2023-05-11T17:18:20.866Z,19.64
2023-05-11T17:21:04.416Z,19.51
2023-05-11T17:23:48.036Z,19.52
2023-05-11T17:26:43.175Z,19.39
2023-05-11T17:29:31.171Z,19.42
2023-05-11T17:32:17.343Z,19.40
2023-05-11T17:35:08.006Z,19.34
2023-05-11T17:37:48.673Z,19.41
2023-05-11T17:40:33.241Z,19.32
2023-05-11T17:43:13.892Z,19.24
2023-05-11T17:46:03.125Z,19.15
2023-05-11T17:48:53.175Z,19.06
2023-05-11T17:51:32.956Z,19.06
2023-05-11T17:54:13.847Z,19.02
2023-05-11T17:57:05.152Z,19.03
2023-05-11T17:59:47.603Z,18.97
2023-05-11T18:02:38.007Z,18.83
2023-05-11T18:05:40.503Z,18.80
2023-05-11T18:08:34.694Z,18.29
2023-05-11T18:11:30.068Z,18.36
2023-05-11T18:14:10.806Z,18.22
2023-05-11T18:16:54.658Z,18.26
2023-05-11T18:19:39.017Z,17.94
2023-05-11T18:22:17.409Z,17.90
2023-05-11T18:25:03.078Z,17.84
2023-05-11T18:27:46.886Z,17.74
2023-05-11T18:30:29.645Z,17.69
2023-05-11T18:33:22.200Z,17.67
2023-05-11T18:35:59.046Z,17.67
2023-05-11T18:38:37.051Z,17.43
2023-05-11T18:41:22.042Z,17.44
2023-05-11T18:43:57.410Z,17.21
2023-05-11T18:46:38.772Z,17.36
2023-05-11T18:49:24.268Z,17.34
2023-05-11T18:52:05.921Z,17.24
2023-05-11T18:54:46.655Z,17.04
2023-05-11T18:57:35.705Z,17.09
2023-05-11T19:00:20.203Z,16.92
2023-05-11T19:03:06.164Z,16.98
2023-05-11T19:05:57.468Z,16.83
2023-05-11T19:08:35.271Z,16.74
2023-05-11T19:11:29.482Z,16.77
2023-05-11T19:14:08.339Z,16.69
2023-05-11T19:16:50.243Z,16.63
2023-05-11T19:19:31.414Z,16.48
2023-05-11T19:22:18.172Z,16.41
2023-05-11T19:25:07.340Z,16.32
2023-05-11T19:27:46.344Z,16.30
2023-05-11T19:30:27.662Z,16.18
2023-05-11T19:33:08.489Z,16.26
2023-05-11T19:35:49.382Z,16.13
2023-05-11T19:38:31.007Z,16.10
2023-05-11T19:41:16.649Z,16.00
2023-05-11T19:44:09.095Z,16.05
2023-05-11T19:46:56.466Z,16.19
2023-05-11T19:49:39.495Z,16.06
2023-05-11T19:52:24.338Z,16.03
2023-05-11T19:55:08.812Z,16.12
2023-05-11T19:57:44.665Z,16.05
2023-05-11T20:00:31.528Z,15.99
2023-05-11T20:03:26.454Z,16.03
2023-05-11T20:06:14.185Z,15.98
2023-05-11T20:08:53.135Z,15.92
2023-05-11T20:11:39.472Z,15.98
2023-05-11T20:14:14.848Z,15.79
2023-05-11T20:17:10.272Z,15.87
2023-05-11T20:19:53.201Z,15.86
2023-05-11T20:22:41.001Z,15.77
2023-05-11T20:25:24.214Z,15.60
2023-05-11T20:28:11.891Z,15.40
2023-05-11T20:30:55.278Z,15.58
2023-05-11T20:36:39.384Z,15.25
2023-05-11T20:39:27.233Z,15.00
2023-05-11T20:42:11.184Z,15.17
2023-05-11T20:45:02.596Z,15.14
2023-05-11T20:47:57.170Z,15.10
2023-05-11T20:50:38.995Z,14.93
2023-05-11T20:53:23.445Z,14.90
2023-05-11T20:56:10.007Z,14.76
2023-05-11T20:59:04.552Z,14.79
2023-05-11T21:01:53.500Z,14.81
2023-05-11T21:04:31.267Z,14.74
2023-05-11T21:07:11.481Z,14.51
2023-05-11T21:10:09.524Z,14.69
2023-05-11T21:12:41.977Z,14.70
2023-05-11T21:15:17.028Z,14.64
2023-05-11T21:18:18.401Z,14.61
2023-05-11T21:21:34.681Z,14.70
2023-05-11T21:24:17.923Z,14.74
2023-05-11T21:27:06.832Z,14.62
2023-05-11T21:29:43.258Z,14.49
2023-05-11T21:32:28.014Z,14.50
2023-05-11T21:35:11.710Z,14.35
2023-05-11T21:38:01.017Z,14.48
2023-05-11T21:40:56.857Z,14.62
2023-05-11T21:43:37.506Z,14.65
2023-05-11T21:46:18.325Z,14.60
2023-05-11T21:49:10.594Z,14.65
2023-05-11T21:51:54.406Z,14.65
2023-05-11T21:54:37.381Z,14.50
2023-05-11T21:57:20.883Z,14.45
2023-05-11T22:00:04.907Z,14.46
2023-05-11T22:02:32.750Z,14.42
2023-05-11T22:05:18.926Z,14.38
2023-05-11T22:08:13.353Z,14.33
2023-05-11T22:11:06.940Z,14.31
2023-05-11T22:13:53.380Z,14.28
2023-05-11T22:16:37.243Z,14.35
2023-05-11T22:19:20.441Z,14.44
2023-05-11T22:22:03.270Z,14.46
2023-05-11T22:24:45.169Z,14.27
2023-05-11T22:27:23.509Z,14.27
2023-05-11T22:30:01.809Z,14.24
2023-05-11T22:32:48.021Z,14.27
2023-05-11T22:35:26.603Z,14.23
2023-05-11T22:38:09.783Z,14.18
2023-05-11T22:40:41.118Z,14.14
2023-05-11T22:43:30.363Z,14.08
2023-05-11T22:46:17.273Z,14.15
2023-05-11T22:48:58.047Z,14.07
2023-05-11T22:51:42.372Z,14.00
2023-05-11T22:54:31.783Z,13.97
2023-05-11T22:57:17.983Z,13.98
2023-05-11T23:00:04.369Z,14.03
2023-05-11T23:02:49.416Z,14.04
2023-05-11T23:05:35.534Z,14.02
2023-05-11T23:08:21.636Z,13.88
2023-05-11T23:11:04.372Z,13.91
2023-05-11T23:13:42.833Z,13.71
2023-05-11T23:16:26.721Z,13.76
2023-05-11T23:19:10.086Z,13.68
2023-05-11T23:21:58.898Z,13.77
2023-05-11T23:24:48.271Z,14.06
2023-05-11T23:27:31.977Z,14.09
2023-05-11T23:30:14.051Z,13.89
2023-05-11T23:32:51.467Z,13.76
2023-05-11T23:35:38.326Z,13.77
2023-05-11T23:38:30.844Z,13.60
2023-05-11T23:41:11.617Z,13.61
2023-05-11T23:43:55.261Z,13.64
2023-05-11T23:46:36.066Z,13.53
2023-05-11T23:49:13.995Z,13.52
2023-05-11T23:52:01.890Z,13.46
2023-05-11T23:54:46.246Z,13.53
2023-05-11T23:57:26.961Z,13.63
